Acosta, PA (15520)

2:07 AM EST on January 31, 2015 (GMT -0500)
Out in the country | Change Station
CLOSE
Current Station
Personal Weather Station
Location: Somerset, PA
Elevation: 2200 ft
Nearby Weather Stations

Elev 2200 ft 40.07 °N, 79.17 °W | Updated 6 seconds ago

Overcast
Overcast
8.2 °F
Feels Like -5 °F
N
9.0
Wind Variable Wind from West
Gusts 15.0 mph

Today
High -- | Low -- °F
--% Chance of Precip.
Yesterday
High -- | Low -- °F
Precip. -- in
7:26 AM 5:33 PM
Waxing Gibbous, 88% visible
Pressure 30.33 in
Visibility 1.8 miles
Clouds Overcast 1700 ft
Windchill -5 °F
Dew Point 5 °F
Humidity 85%
Rainfall 0.00 in
Snow Depth Not available.
UV 0 out of 12
Pollen .10 out of 12
Air Quality Not available.
Flu Activity Not available.
METAR KJST 310654Z AUTO 29016G25KT 1 3/4SM -SN OVC017 M14/M17 A3019 RMK AO2 PK WND 29029/0637 VIS 1V2 1/2 SLP270 P0000 T11391172

More Conditions Fewer Conditions

Pressure 30.33 in
Visibility 1.8 miles
Clouds Overcast 1700 ft
Windchill -5 °F
Dew Point 5 °F
Humidity 85%
Rainfall 0.00 in
Snow Depth Not available.
UV 0 out of 12
Pollen .10 out of 12
Air Quality Not available.
Flu Activity Not available.
METAR KJST 310654Z AUTO 29016G25KT 1 3/4SM -SN OVC017 M14/M17 A3019 RMK AO2 PK WND 29029/0637 VIS 1V2 1/2 SLP270 P0000 T11391172

More Conditions Fewer Conditions

10-Day Weather Forecast

Almanac

Astronomy

Jan. 31, 2015 Rise Set
Actual Time
Civil Twilight
Nautical Twilight
Astronomical Twilight
Moon
Length of Visible Light
Length of Day
Tomorrow will be .
, % of the Moon is Illuminated

Today's Extremes

State Highs State Lows

Community

WunderPhotos

Upload Photos

1,792,014 photos uploaded!

WunderBlogs® & News

Nearby

Air Quality

  Air Quality AQ Index Pollutant
Not available.

Snow Depth

Station Depth Elevation

Earthquake Activity

City Distance Mag. Time & Date
Minimum magnitude displayed is 2.5.

Coastal Water Temperatures

Place Temperature

Nearby Weather Stations